sensor_id;sensor_type;location;lat;lon;timestamp;P1;durP1;ratioP1;P2;durP2;ratioP2
65206;SDS011;58477;48.072;11.970;2023-04-30T00:01:36;7.65;;;4.40;;
65206;SDS011;58477;48.072;11.970;2023-04-30T00:04:02;4.80;;;4.15;;
65206;SDS011;58477;48.072;11.970;2023-04-30T00:06:28;5.35;;;4.38;;
65206;SDS011;58477;48.072;11.970;2023-04-30T00:08:53;6.03;;;4.30;;
65206;SDS011;58477;48.072;11.970;2023-04-30T00:11:18;6.97;;;4.30;;
65206;SDS011;58477;48.072;11.970;2023-04-30T00:13:44;6.50;;;4.00;;
65206;SDS011;58477;48.072;11.970;2023-04-30T00:16:09;7.13;;;4.30;;
65206;SDS011;58477;48.072;11.970;2023-04-30T00:18:35;5.13;;;3.90;;
65206;SDS011;58477;48.072;11.970;2023-04-30T00:21:00;6.03;;;4.50;;
65206;SDS011;58477;48.072;11.970;2023-04-30T00:23:26;4.50;;;3.95;;
65206;SDS011;58477;48.072;11.970;2023-04-30T00:25:51;4.20;;;3.80;;
65206;SDS011;58477;48.072;11.970;2023-04-30T00:28:17;8.73;;;3.70;;
65206;SDS011;58477;48.072;11.970;2023-04-30T00:30:42;6.38;;;3.97;;
65206;SDS011;58477;48.072;11.970;2023-04-30T00:33:08;6.43;;;4.43;;
65206;SDS011;58477;48.072;11.970;2023-04-30T00:35:33;8.00;;;4.20;;
65206;SDS011;58477;48.072;11.970;2023-04-30T00:37:59;5.95;;;4.15;;
65206;SDS011;58477;48.072;11.970;2023-04-30T00:40:24;6.40;;;4.90;;
65206;SDS011;58477;48.072;11.970;2023-04-30T00:42:51;4.90;;;4.40;;
65206;SDS011;58477;48.072;11.970;2023-04-30T00:45:17;4.60;;;4.10;;
65206;SDS011;58477;48.072;11.970;2023-04-30T00:47:46;5.78;;;4.15;;
65206;SDS011;58477;48.072;11.970;2023-04-30T00:50:12;6.80;;;5.05;;
65206;SDS011;58477;48.072;11.970;2023-04-30T00:52:40;6.45;;;4.30;;
65206;SDS011;58477;48.072;11.970;2023-04-30T00:55:06;6.75;;;4.80;;
65206;SDS011;58477;48.072;11.970;2023-04-30T00:57:33;5.78;;;4.63;;
65206;SDS011;58477;48.072;11.970;2023-04-30T01:00:00;7.82;;;4.57;;
65206;SDS011;58477;48.072;11.970;2023-04-30T01:02:27;5.80;;;4.20;;
65206;SDS011;58477;48.072;11.970;2023-04-30T01:04:53;5.82;;;4.55;;
65206;SDS011;58477;48.072;11.970;2023-04-30T01:07:19;6.72;;;4.13;;
65206;SDS011;58477;48.072;11.970;2023-04-30T01:09:45;6.18;;;4.47;;
65206;SDS011;58477;48.072;11.970;2023-04-30T01:15:12;5.50;;;4.53;;
65206;SDS011;58477;48.072;11.970;2023-04-30T01:20:44;7.82;;;4.40;;
65206;SDS011;58477;48.072;11.970;2023-04-30T01:23:18;5.55;;;4.32;;
65206;SDS011;58477;48.072;11.970;2023-04-30T01:25:59;6.78;;;4.25;;
65206;SDS011;58477;48.072;11.970;2023-04-30T01:28:35;4.97;;;3.83;;
65206;SDS011;58477;48.072;11.970;2023-04-30T01:31:02;7.18;;;4.10;;
65206;SDS011;58477;48.072;11.970;2023-04-30T01:33:27;7.25;;;4.13;;
65206;SDS011;58477;48.072;11.970;2023-04-30T01:38:48;5.90;;;4.00;;
65206;SDS011;58477;48.072;11.970;2023-04-30T01:41:27;8.55;;;4.50;;
65206;SDS011;58477;48.072;11.970;2023-04-30T01:46:54;6.50;;;5.00;;
65206;SDS011;58477;48.072;11.970;2023-04-30T01:52:38;10.20;;;4.97;;
65206;SDS011;58477;48.072;11.970;2023-04-30T01:55:13;5.85;;;4.72;;
65206;SDS011;58477;48.072;11.970;2023-04-30T01:58:04;8.27;;;4.72;;
65206;SDS011;58477;48.072;11.970;2023-04-30T02:00:33;7.65;;;4.30;;
65206;SDS011;58477;48.072;11.970;2023-04-30T02:02:59;6.18;;;4.05;;
65206;SDS011;58477;48.072;11.970;2023-04-30T02:05:25;6.25;;;4.38;;
65206;SDS011;58477;48.072;11.970;2023-04-30T02:07:51;5.60;;;4.28;;
65206;SDS011;58477;48.072;11.970;2023-04-30T02:10:18;6.40;;;4.60;;
65206;SDS011;58477;48.072;11.970;2023-04-30T02:12:45;5.22;;;4.35;;
65206;SDS011;58477;48.072;11.970;2023-04-30T02:15:11;6.00;;;4.63;;
65206;SDS011;58477;48.072;11.970;2023-04-30T02:17:39;7.15;;;4.32;;
65206;SDS011;58477;48.072;11.970;2023-04-30T02:20:05;7.10;;;4.63;;
65206;SDS011;58477;48.072;11.970;2023-04-30T02:22:32;7.05;;;4.78;;
65206;SDS011;58477;48.072;11.970;2023-04-30T02:24:58;7.40;;;5.00;;
65206;SDS011;58477;48.072;11.970;2023-04-30T02:27:24;6.25;;;4.30;;
65206;SDS011;58477;48.072;11.970;2023-04-30T02:29:50;6.20;;;4.82;;
65206;SDS011;58477;48.072;11.970;2023-04-30T02:32:16;7.57;;;4.93;;
65206;SDS011;58477;48.072;11.970;2023-04-30T02:34:42;8.70;;;4.80;;
65206;SDS011;58477;48.072;11.970;2023-04-30T02:37:07;9.75;;;5.25;;
65206;SDS011;58477;48.072;11.970;2023-04-30T02:39:33;7.03;;;4.57;;
65206;SDS011;58477;48.072;11.970;2023-04-30T02:41:59;6.93;;;4.43;;
65206;SDS011;58477;48.072;11.970;2023-04-30T02:44:24;6.03;;;4.93;;
65206;SDS011;58477;48.072;11.970;2023-04-30T02:46:50;6.55;;;4.47;;
65206;SDS011;58477;48.072;11.970;2023-04-30T02:49:16;7.38;;;4.82;;
65206;SDS011;58477;48.072;11.970;2023-04-30T02:51:41;8.23;;;5.50;;
65206;SDS011;58477;48.072;11.970;2023-04-30T02:54:07;6.35;;;5.05;;
65206;SDS011;58477;48.072;11.970;2023-04-30T02:56:33;6.55;;;4.97;;
65206;SDS011;58477;48.072;11.970;2023-04-30T02:58:59;6.18;;;4.70;;
65206;SDS011;58477;48.072;11.970;2023-04-30T03:01:24;7.55;;;5.28;;
65206;SDS011;58477;48.072;11.970;2023-04-30T03:03:50;7.55;;;5.63;;
65206;SDS011;58477;48.072;11.970;2023-04-30T03:06:16;10.75;;;5.68;;
65206;SDS011;58477;48.072;11.970;2023-04-30T03:08:41;6.85;;;5.15;;
65206;SDS011;58477;48.072;11.970;2023-04-30T03:11:06;7.38;;;5.30;;
65206;SDS011;58477;48.072;11.970;2023-04-30T03:13:32;7.35;;;5.28;;
65206;SDS011;58477;48.072;11.970;2023-04-30T03:16:01;7.13;;;5.13;;
65206;SDS011;58477;48.072;11.970;2023-04-30T03:18:31;7.03;;;5.78;;
65206;SDS011;58477;48.072;11.970;2023-04-30T03:20:56;8.05;;;5.70;;
65206;SDS011;58477;48.072;11.970;2023-04-30T03:23:22;7.07;;;5.20;;
65206;SDS011;58477;48.072;11.970;2023-04-30T03:25:48;6.78;;;5.20;;
65206;SDS011;58477;48.072;11.970;2023-04-30T03:28:13;9.75;;;5.47;;
65206;SDS011;58477;48.072;11.970;2023-04-30T03:30:39;7.30;;;5.35;;
65206;SDS011;58477;48.072;11.970;2023-04-30T03:33:05;7.15;;;5.22;;
65206;SDS011;58477;48.072;11.970;2023-04-30T03:35:31;6.30;;;5.20;;
65206;SDS011;58477;48.072;11.970;2023-04-30T03:37:58;9.40;;;6.07;;
65206;SDS011;58477;48.072;11.970;2023-04-30T03:40:26;8.10;;;5.55;;
65206;SDS011;58477;48.072;11.970;2023-04-30T03:42:51;7.40;;;5.47;;
65206;SDS011;58477;48.072;11.970;2023-04-30T03:45:17;7.03;;;5.75;;
65206;SDS011;58477;48.072;11.970;2023-04-30T03:47:42;9.27;;;5.55;;
65206;SDS011;58477;48.072;11.970;2023-04-30T03:50:08;9.80;;;5.78;;
65206;SDS011;58477;48.072;11.970;2023-04-30T03:52:34;7.57;;;5.35;;
65206;SDS011;58477;48.072;11.970;2023-04-30T03:55:03;7.28;;;5.65;;
65206;SDS011;58477;48.072;11.970;2023-04-30T03:57:29;7.32;;;5.95;;
65206;SDS011;58477;48.072;11.970;2023-04-30T03:59:56;9.68;;;6.32;;
65206;SDS011;58477;48.072;11.970;2023-04-30T04:02:22;9.45;;;7.03;;
65206;SDS011;58477;48.072;11.970;2023-04-30T04:04:47;8.02;;;6.20;;
65206;SDS011;58477;48.072;11.970;2023-04-30T04:07:14;8.05;;;6.78;;
65206;SDS011;58477;48.072;11.970;2023-04-30T04:09:39;11.10;;;7.55;;
65206;SDS011;58477;48.072;11.970;2023-04-30T04:12:06;11.75;;;6.82;;
65206;SDS011;58477;48.072;11.970;2023-04-30T04:14:31;8.98;;;6.70;;
65206;SDS011;58477;48.072;11.970;2023-04-30T04:16:57;9.75;;;6.45;;
65206;SDS011;58477;48.072;11.970;2023-04-30T04:19:24;7.80;;;5.88;;
65206;SDS011;58477;48.072;11.970;2023-04-30T04:21:53;8.65;;;6.32;;
65206;SDS011;58477;48.072;11.970;2023-04-30T04:24:19;7.65;;;5.97;;
65206;SDS011;58477;48.072;11.970;2023-04-30T04:26:45;10.88;;;6.32;;
65206;SDS011;58477;48.072;11.970;2023-04-30T04:29:10;8.50;;;5.95;;
65206;SDS011;58477;48.072;11.970;2023-04-30T04:31:37;9.27;;;6.05;;
65206;SDS011;58477;48.072;11.970;2023-04-30T04:34:05;8.55;;;6.22;;
65206;SDS011;58477;48.072;11.970;2023-04-30T04:36:31;8.85;;;6.03;;
65206;SDS011;58477;48.072;11.970;2023-04-30T04:38:58;8.68;;;6.00;;
65206;SDS011;58477;48.072;11.970;2023-04-30T04:41:28;8.55;;;6.28;;
65206;SDS011;58477;48.072;11.970;2023-04-30T04:43:55;6.25;;;5.53;;
65206;SDS011;58477;48.072;11.970;2023-04-30T04:46:21;7.05;;;5.28;;
65206;SDS011;58477;48.072;11.970;2023-04-30T04:48:50;6.72;;;5.60;;
65206;SDS011;58477;48.072;11.970;2023-04-30T04:51:17;8.40;;;5.90;;
65206;SDS011;58477;48.072;11.970;2023-04-30T04:53:42;9.90;;;5.85;;
65206;SDS011;58477;48.072;11.970;2023-04-30T04:56:08;8.02;;;5.88;;
65206;SDS011;58477;48.072;11.970;2023-04-30T04:58:34;8.25;;;6.05;;
65206;SDS011;58477;48.072;11.970;2023-04-30T05:00:59;8.18;;;6.22;;
65206;SDS011;58477;48.072;11.970;2023-04-30T05:03:26;7.35;;;6.25;;
65206;SDS011;58477;48.072;11.970;2023-04-30T05:05:52;8.43;;;6.55;;
65206;SDS011;58477;48.072;11.970;2023-04-30T05:08:17;8.68;;;6.25;;
65206;SDS011;58477;48.072;11.970;2023-04-30T05:10:43;8.98;;;5.97;;
65206;SDS011;58477;48.072;11.970;2023-04-30T05:13:08;7.35;;;5.60;;
65206;SDS011;58477;48.072;11.970;2023-04-30T05:15:34;7.88;;;6.00;;
65206;SDS011;58477;48.072;11.970;2023-04-30T05:17:59;6.43;;;5.65;;
65206;SDS011;58477;48.072;11.970;2023-04-30T05:20:25;8.00;;;6.15;;
65206;SDS011;58477;48.072;11.970;2023-04-30T05:22:50;8.40;;;5.82;;
65206;SDS011;58477;48.072;11.970;2023-04-30T05:25:16;8.60;;;6.75;;
65206;SDS011;58477;48.072;11.970;2023-04-30T05:27:41;7.60;;;6.25;;
65206;SDS011;58477;48.072;11.970;2023-04-30T05:30:07;8.55;;;5.80;;
65206;SDS011;58477;48.072;11.970;2023-04-30T05:32:33;6.78;;;5.45;;
65206;SDS011;58477;48.072;11.970;2023-04-30T05:34:59;7.22;;;5.55;;
65206;SDS011;58477;48.072;11.970;2023-04-30T05:37:25;7.07;;;5.18;;
65206;SDS011;58477;48.072;11.970;2023-04-30T05:39:50;6.65;;;5.32;;
65206;SDS011;58477;48.072;11.970;2023-04-30T05:42:18;7.65;;;5.78;;
65206;SDS011;58477;48.072;11.970;2023-04-30T05:44:43;7.68;;;5.80;;
65206;SDS011;58477;48.072;11.970;2023-04-30T05:47:09;5.57;;;5.07;;
65206;SDS011;58477;48.072;11.970;2023-04-30T05:49:34;9.25;;;5.20;;
65206;SDS011;58477;48.072;11.970;2023-04-30T05:52:00;5.82;;;5.07;;
65206;SDS011;58477;48.072;11.970;2023-04-30T05:54:27;7.07;;;4.65;;
65206;SDS011;58477;48.072;11.970;2023-04-30T05:56:53;5.45;;;4.38;;
65206;SDS011;58477;48.072;11.970;2023-04-30T05:59:19;5.40;;;4.30;;
65206;SDS011;58477;48.072;11.970;2023-04-30T06:01:44;5.82;;;4.93;;
65206;SDS011;58477;48.072;11.970;2023-04-30T06:04:09;6.85;;;4.65;;
65206;SDS011;58477;48.072;11.970;2023-04-30T06:06:35;5.55;;;4.90;;
65206;SDS011;58477;48.072;11.970;2023-04-30T06:09:01;5.35;;;4.63;;
65206;SDS011;58477;48.072;11.970;2023-04-30T06:11:28;5.60;;;4.55;;
65206;SDS011;58477;48.072;11.970;2023-04-30T06:13:54;6.20;;;4.82;;
65206;SDS011;58477;48.072;11.970;2023-04-30T06:16:20;7.43;;;3.92;;
65206;SDS011;58477;48.072;11.970;2023-04-30T06:18:45;5.15;;;4.47;;
65206;SDS011;58477;48.072;11.970;2023-04-30T06:21:11;5.35;;;4.85;;
65206;SDS011;58477;48.072;11.970;2023-04-30T06:23:36;5.88;;;5.00;;
65206;SDS011;58477;48.072;11.970;2023-04-30T06:26:02;5.60;;;4.80;;
65206;SDS011;58477;48.072;11.970;2023-04-30T06:28:27;5.90;;;4.82;;
65206;SDS011;58477;48.072;11.970;2023-04-30T06:30:53;4.72;;;4.18;;
65206;SDS011;58477;48.072;11.970;2023-04-30T06:33:19;5.32;;;4.80;;
65206;SDS011;58477;48.072;11.970;2023-04-30T06:35:45;6.43;;;4.43;;
65206;SDS011;58477;48.072;11.970;2023-04-30T06:38:10;6.50;;;4.72;;
65206;SDS011;58477;48.072;11.970;2023-04-30T06:40:36;6.50;;;4.63;;
65206;SDS011;58477;48.072;11.970;2023-04-30T06:43:02;5.03;;;4.43;;
65206;SDS011;58477;48.072;11.970;2023-04-30T06:45:27;4.80;;;4.18;;
65206;SDS011;58477;48.072;11.970;2023-04-30T06:47:53;6.18;;;5.13;;
65206;SDS011;58477;48.072;11.970;2023-04-30T06:50:18;6.00;;;4.80;;
65206;SDS011;58477;48.072;11.970;2023-04-30T06:52:45;5.00;;;4.13;;
65206;SDS011;58477;48.072;11.970;2023-04-30T06:55:11;7.00;;;4.40;;
65206;SDS011;58477;48.072;11.970;2023-04-30T06:57:36;6.40;;;5.32;;
65206;SDS011;58477;48.072;11.970;2023-04-30T07:00:05;6.57;;;5.40;;
65206;SDS011;58477;48.072;11.970;2023-04-30T07:02:31;6.00;;;4.47;;
65206;SDS011;58477;48.072;11.970;2023-04-30T07:04:57;13.30;;;4.93;;
65206;SDS011;58477;48.072;11.970;2023-04-30T07:07:22;8.23;;;4.50;;
65206;SDS011;58477;48.072;11.970;2023-04-30T07:09:48;5.80;;;4.80;;
65206;SDS011;58477;48.072;11.970;2023-04-30T07:12:14;4.60;;;3.90;;
65206;SDS011;58477;48.072;11.970;2023-04-30T07:14:40;5.20;;;4.70;;
65206;SDS011;58477;48.072;11.970;2023-04-30T07:17:05;6.85;;;4.35;;
65206;SDS011;58477;48.072;11.970;2023-04-30T07:19:31;4.57;;;4.18;;
65206;SDS011;58477;48.072;11.970;2023-04-30T07:21:56;4.53;;;3.88;;
65206;SDS011;58477;48.072;11.970;2023-04-30T07:24:22;5.13;;;4.07;;
65206;SDS011;58477;48.072;11.970;2023-04-30T07:26:47;7.82;;;4.40;;
65206;SDS011;58477;48.072;11.970;2023-04-30T07:29:13;5.22;;;4.30;;
65206;SDS011;58477;48.072;11.970;2023-04-30T07:31:38;4.45;;;4.05;;
65206;SDS011;58477;48.072;11.970;2023-04-30T07:34:04;4.63;;;4.22;;
65206;SDS011;58477;48.072;11.970;2023-04-30T07:36:29;4.50;;;4.00;;
65206;SDS011;58477;48.072;11.970;2023-04-30T07:38:55;5.38;;;4.88;;
65206;SDS011;58477;48.072;11.970;2023-04-30T07:41:20;5.38;;;4.70;;
65206;SDS011;58477;48.072;11.970;2023-04-30T07:43:46;5.40;;;4.68;;
65206;SDS011;58477;48.072;11.970;2023-04-30T07:46:11;5.60;;;4.97;;
65206;SDS011;58477;48.072;11.970;2023-04-30T07:48:36;5.55;;;5.00;;
65206;SDS011;58477;48.072;11.970;2023-04-30T07:51:02;6.13;;;5.18;;
65206;SDS011;58477;48.072;11.970;2023-04-30T07:53:29;6.25;;;4.60;;
65206;SDS011;58477;48.072;11.970;2023-04-30T07:55:54;7.95;;;5.13;;
65206;SDS011;58477;48.072;11.970;2023-04-30T07:58:20;5.95;;;4.82;;
65206;SDS011;58477;48.072;11.970;2023-04-30T08:00:45;6.78;;;4.75;;
65206;SDS011;58477;48.072;11.970;2023-04-30T08:03:11;5.35;;;4.85;;
65206;SDS011;58477;48.072;11.970;2023-04-30T08:05:37;5.32;;;4.53;;
65206;SDS011;58477;48.072;11.970;2023-04-30T08:08:02;4.82;;;4.40;;
65206;SDS011;58477;48.072;11.970;2023-04-30T08:10:28;5.25;;;4.25;;
65206;SDS011;58477;48.072;11.970;2023-04-30T08:12:53;4.95;;;4.45;;
65206;SDS011;58477;48.072;11.970;2023-04-30T08:15:19;6.38;;;4.95;;
65206;SDS011;58477;48.072;11.970;2023-04-30T08:17:47;6.20;;;5.53;;
65206;SDS011;58477;48.072;11.970;2023-04-30T08:20:14;5.63;;;5.13;;
65206;SDS011;58477;48.072;11.970;2023-04-30T08:22:39;6.40;;;5.28;;
65206;SDS011;58477;48.072;11.970;2023-04-30T08:25:05;7.50;;;5.28;;
65206;SDS011;58477;48.072;11.970;2023-04-30T08:27:35;5.22;;;4.38;;
65206;SDS011;58477;48.072;11.970;2023-04-30T08:30:01;4.80;;;4.30;;
65206;SDS011;58477;48.072;11.970;2023-04-30T08:32:26;4.95;;;4.43;;
65206;SDS011;58477;48.072;11.970;2023-04-30T08:34:52;5.20;;;4.70;;
65206;SDS011;58477;48.072;11.970;2023-04-30T08:37:18;5.65;;;5.07;;
65206;SDS011;58477;48.072;11.970;2023-04-30T08:39:43;5.05;;;4.55;;
65206;SDS011;58477;48.072;11.970;2023-04-30T08:42:09;5.78;;;5.22;;
65206;SDS011;58477;48.072;11.970;2023-04-30T08:44:38;5.55;;;4.90;;
65206;SDS011;58477;48.072;11.970;2023-04-30T08:47:07;4.47;;;4.07;;
65206;SDS011;58477;48.072;11.970;2023-04-30T08:49:37;6.30;;;5.22;;
65206;SDS011;58477;48.072;11.970;2023-04-30T08:52:03;4.93;;;4.43;;
65206;SDS011;58477;48.072;11.970;2023-04-30T08:54:29;6.30;;;4.75;;
65206;SDS011;58477;48.072;11.970;2023-04-30T08:56:56;6.05;;;5.18;;
65206;SDS011;58477;48.072;11.970;2023-04-30T08:59:22;4.63;;;4.22;;
65206;SDS011;58477;48.072;11.970;2023-04-30T09:01:48;4.63;;;4.22;;
65206;SDS011;58477;48.072;11.970;2023-04-30T09:04:13;4.40;;;3.70;;
65206;SDS011;58477;48.072;11.970;2023-04-30T09:06:39;4.60;;;4.15;;
65206;SDS011;58477;48.072;11.970;2023-04-30T09:09:08;6.20;;;4.25;;
65206;SDS011;58477;48.072;11.970;2023-04-30T09:11:35;5.43;;;4.38;;
65206;SDS011;58477;48.072;11.970;2023-04-30T09:14:01;4.55;;;4.15;;
65206;SDS011;58477;48.072;11.970;2023-04-30T09:19:23;5.60;;;5.10;;
65206;SDS011;58477;48.072;11.970;2023-04-30T09:21:50;5.85;;;5.15;;
65206;SDS011;58477;48.072;11.970;2023-04-30T09:24:15;4.55;;;4.13;;
65206;SDS011;58477;48.072;11.970;2023-04-30T09:26:41;5.55;;;3.95;;
65206;SDS011;58477;48.072;11.970;2023-04-30T09:29:07;4.65;;;3.70;;
65206;SDS011;58477;48.072;11.970;2023-04-30T09:31:37;4.95;;;4.40;;
65206;SDS011;58477;48.072;11.970;2023-04-30T09:34:04;4.82;;;4.43;;
65206;SDS011;58477;48.072;11.970;2023-04-30T09:36:30;5.63;;;4.75;;
65206;SDS011;58477;48.072;11.970;2023-04-30T09:38:56;5.97;;;5.07;;
65206;SDS011;58477;48.072;11.970;2023-04-30T09:41:31;6.32;;;4.65;;
65206;SDS011;58477;48.072;11.970;2023-04-30T09:43:56;8.95;;;6.10;;
65206;SDS011;58477;48.072;11.970;2023-04-30T09:46:29;6.90;;;5.85;;
65206;SDS011;58477;48.072;11.970;2023-04-30T09:48:56;6.35;;;5.30;;
65206;SDS011;58477;48.072;11.970;2023-04-30T09:51:22;6.88;;;5.82;;
65206;SDS011;58477;48.072;11.970;2023-04-30T09:53:48;7.00;;;5.47;;
65206;SDS011;58477;48.072;11.970;2023-04-30T09:56:16;7.90;;;4.97;;
65206;SDS011;58477;48.072;11.970;2023-04-30T09:58:44;9.65;;;5.45;;
65206;SDS011;58477;48.072;11.970;2023-04-30T10:01:15;7.53;;;5.57;;
65206;SDS011;58477;48.072;11.970;2023-04-30T10:03:42;7.28;;;5.22;;
65206;SDS011;58477;48.072;11.970;2023-04-30T10:06:08;8.00;;;5.70;;
65206;SDS011;58477;48.072;11.970;2023-04-30T10:08:39;5.35;;;4.85;;
65206;SDS011;58477;48.072;11.970;2023-04-30T10:11:07;5.18;;;4.38;;
65206;SDS011;58477;48.072;11.970;2023-04-30T10:19:13;7.20;;;5.53;;
65206;SDS011;58477;48.072;11.970;2023-04-30T10:21:49;5.20;;;4.70;;
65206;SDS011;58477;48.072;11.970;2023-04-30T10:24:16;5.57;;;5.03;;
65206;SDS011;58477;48.072;11.970;2023-04-30T10:26:43;7.72;;;5.07;;
65206;SDS011;58477;48.072;11.970;2023-04-30T10:29:11;5.68;;;4.95;;
65206;SDS011;58477;48.072;11.970;2023-04-30T10:31:37;5.10;;;4.60;;
65206;SDS011;58477;48.072;11.970;2023-04-30T10:36:50;6.72;;;4.82;;
65206;SDS011;58477;48.072;11.970;2023-04-30T10:39:21;4.47;;;4.07;;
65206;SDS011;58477;48.072;11.970;2023-04-30T10:41:48;5.65;;;4.35;;
65206;SDS011;58477;48.072;11.970;2023-04-30T10:44:13;4.95;;;4.40;;
65206;SDS011;58477;48.072;11.970;2023-04-30T10:46:40;5.00;;;4.00;;
65206;SDS011;58477;48.072;11.970;2023-04-30T10:49:06;4.18;;;3.50;;
65206;SDS011;58477;48.072;11.970;2023-04-30T10:51:47;5.30;;;3.92;;
65206;SDS011;58477;48.072;11.970;2023-04-30T10:54:16;3.80;;;3.47;;
65206;SDS011;58477;48.072;11.970;2023-04-30T10:56:49;5.68;;;3.63;;
65206;SDS011;58477;48.072;11.970;2023-04-30T10:59:16;4.13;;;3.72;;
65206;SDS011;58477;48.072;11.970;2023-04-30T11:01:54;5.15;;;3.35;;
65206;SDS011;58477;48.072;11.970;2023-04-30T11:04:22;5.28;;;3.40;;
65206;SDS011;58477;48.072;11.970;2023-04-30T11:06:48;3.80;;;3.50;;
65206;SDS011;58477;48.072;11.970;2023-04-30T11:09:33;3.85;;;3.20;;
65206;SDS011;58477;48.072;11.970;2023-04-30T11:12:04;3.65;;;3.35;;
65206;SDS011;58477;48.072;11.970;2023-04-30T11:14:38;4.72;;;3.08;;
65206;SDS011;58477;48.072;11.970;2023-04-30T11:17:08;4.28;;;3.33;;
65206;SDS011;58477;48.072;11.970;2023-04-30T11:19:37;3.78;;;2.95;;
65206;SDS011;58477;48.072;11.970;2023-04-30T11:27:40;3.83;;;3.00;;
65206;SDS011;58477;48.072;11.970;2023-04-30T11:30:12;6.10;;;2.95;;
65206;SDS011;58477;48.072;11.970;2023-04-30T11:32:40;3.50;;;2.95;;
65206;SDS011;58477;48.072;11.970;2023-04-30T11:35:07;4.15;;;2.53;;
65206;SDS011;58477;48.072;11.970;2023-04-30T11:37:37;3.10;;;2.90;;
65206;SDS011;58477;48.072;11.970;2023-04-30T11:40:04;4.28;;;3.42;;
65206;SDS011;58477;48.072;11.970;2023-04-30T11:42:41;3.28;;;2.38;;
65206;SDS011;58477;48.072;11.970;2023-04-30T11:45:15;5.18;;;2.80;;
65206;SDS011;58477;48.072;11.970;2023-04-30T11:47:51;3.47;;;2.58;;
65206;SDS011;58477;48.072;11.970;2023-04-30T11:50:19;3.42;;;2.60;;
65206;SDS011;58477;48.072;11.970;2023-04-30T11:52:56;3.30;;;3.00;;
65206;SDS011;58477;48.072;11.970;2023-04-30T11:55:23;3.53;;;3.20;;
65206;SDS011;58477;48.072;11.970;2023-04-30T11:57:50;3.28;;;2.90;;
65206;SDS011;58477;48.072;11.970;2023-04-30T12:00:20;2.97;;;2.67;;
65206;SDS011;58477;48.072;11.970;2023-04-30T12:02:47;3.70;;;2.60;;
65206;SDS011;58477;48.072;11.970;2023-04-30T12:05:14;2.30;;;2.10;;
65206;SDS011;58477;48.072;11.970;2023-04-30T12:07:45;3.83;;;2.10;;
65206;SDS011;58477;48.072;11.970;2023-04-30T12:10:11;4.07;;;2.40;;
65206;SDS011;58477;48.072;11.970;2023-04-30T12:12:37;3.35;;;2.75;;
65206;SDS011;58477;48.072;11.970;2023-04-30T12:15:13;2.67;;;2.47;;
65206;SDS011;58477;48.072;11.970;2023-04-30T12:17:39;5.55;;;2.55;;
65206;SDS011;58477;48.072;11.970;2023-04-30T12:20:05;2.80;;;2.60;;
65206;SDS011;58477;48.072;11.970;2023-04-30T12:22:32;2.20;;;2.08;;
65206;SDS011;58477;48.072;11.970;2023-04-30T12:24:58;2.72;;;2.53;;
65206;SDS011;58477;48.072;11.970;2023-04-30T12:27:24;2.28;;;2.08;;
65206;SDS011;58477;48.072;11.970;2023-04-30T12:29:50;4.07;;;2.67;;
65206;SDS011;58477;48.072;11.970;2023-04-30T12:32:19;4.05;;;2.65;;
65206;SDS011;58477;48.072;11.970;2023-04-30T12:34:46;3.22;;;2.70;;
65206;SDS011;58477;48.072;11.970;2023-04-30T12:37:15;3.20;;;2.90;;
65206;SDS011;58477;48.072;11.970;2023-04-30T12:39:41;2.67;;;2.40;;
65206;SDS011;58477;48.072;11.970;2023-04-30T12:42:07;2.80;;;2.33;;
65206;SDS011;58477;48.072;11.970;2023-04-30T12:44:32;3.08;;;2.53;;
65206;SDS011;58477;48.072;11.970;2023-04-30T12:47:07;2.65;;;2.28;;
65206;SDS011;58477;48.072;11.970;2023-04-30T12:49:34;2.53;;;2.30;;
65206;SDS011;58477;48.072;11.970;2023-04-30T12:52:04;2.97;;;2.33;;
65206;SDS011;58477;48.072;11.970;2023-04-30T12:54:32;3.20;;;2.55;;
65206;SDS011;58477;48.072;11.970;2023-04-30T12:56:59;3.13;;;2.70;;
65206;SDS011;58477;48.072;11.970;2023-04-30T13:02:21;3.75;;;2.80;;
65206;SDS011;58477;48.072;11.970;2023-04-30T13:04:48;3.22;;;2.90;;
65206;SDS011;58477;48.072;11.970;2023-04-30T13:07:15;3.65;;;2.90;;
65206;SDS011;58477;48.072;11.970;2023-04-30T13:09:40;3.50;;;2.45;;
65206;SDS011;58477;48.072;11.970;2023-04-30T13:12:06;3.60;;;2.90;;
65206;SDS011;58477;48.072;11.970;2023-04-30T13:14:31;2.95;;;2.72;;
65206;SDS011;58477;48.072;11.970;2023-04-30T13:16:57;3.58;;;3.20;;
65206;SDS011;58477;48.072;11.970;2023-04-30T13:19:23;3.63;;;2.67;;
65206;SDS011;58477;48.072;11.970;2023-04-30T13:21:49;3.47;;;2.85;;
65206;SDS011;58477;48.072;11.970;2023-04-30T13:24:15;4.15;;;3.08;;
65206;SDS011;58477;48.072;11.970;2023-04-30T13:26:42;2.70;;;2.50;;
65206;SDS011;58477;48.072;11.970;2023-04-30T13:29:08;3.53;;;2.75;;
65206;SDS011;58477;48.072;11.970;2023-04-30T13:31:34;2.60;;;2.40;;
65206;SDS011;58477;48.072;11.970;2023-04-30T13:33:59;2.78;;;2.50;;
65206;SDS011;58477;48.072;11.970;2023-04-30T13:36:25;2.50;;;2.30;;
65206;SDS011;58477;48.072;11.970;2023-04-30T13:38:51;2.50;;;2.25;;
65206;SDS011;58477;48.072;11.970;2023-04-30T13:41:17;3.40;;;2.47;;
65206;SDS011;58477;48.072;11.970;2023-04-30T13:43:42;3.15;;;2.30;;
65206;SDS011;58477;48.072;11.970;2023-04-30T13:46:10;2.70;;;2.20;;
65206;SDS011;58477;48.072;11.970;2023-04-30T13:48:36;2.30;;;2.20;;
65206;SDS011;58477;48.072;11.970;2023-04-30T13:51:01;4.28;;;2.40;;
65206;SDS011;58477;48.072;11.970;2023-04-30T13:53:27;7.38;;;2.42;;
65206;SDS011;58477;48.072;11.970;2023-04-30T13:55:52;3.70;;;2.30;;
65206;SDS011;58477;48.072;11.970;2023-04-30T13:58:18;1.92;;;1.83;;
65206;SDS011;58477;48.072;11.970;2023-04-30T14:00:44;2.22;;;1.92;;
65206;SDS011;58477;48.072;11.970;2023-04-30T14:03:10;4.95;;;2.25;;
65206;SDS011;58477;48.072;11.970;2023-04-30T14:05:36;2.22;;;2.03;;
65206;SDS011;58477;48.072;11.970;2023-04-30T14:08:03;1.95;;;1.83;;
65206;SDS011;58477;48.072;11.970;2023-04-30T14:10:29;3.25;;;2.00;;
65206;SDS011;58477;48.072;11.970;2023-04-30T14:12:55;2.03;;;1.83;;
65206;SDS011;58477;48.072;11.970;2023-04-30T14:15:20;4.65;;;2.78;;
65206;SDS011;58477;48.072;11.970;2023-04-30T14:17:46;2.25;;;2.10;;
65206;SDS011;58477;48.072;11.970;2023-04-30T14:20:12;2.78;;;2.58;;
65206;SDS011;58477;48.072;11.970;2023-04-30T14:22:38;2.47;;;2.25;;
65206;SDS011;58477;48.072;11.970;2023-04-30T14:25:04;4.47;;;2.58;;
65206;SDS011;58477;48.072;11.970;2023-04-30T14:27:30;3.05;;;2.80;;
65206;SDS011;58477;48.072;11.970;2023-04-30T14:29:55;2.20;;;2.10;;
65206;SDS011;58477;48.072;11.970;2023-04-30T14:32:23;2.35;;;2.17;;
65206;SDS011;58477;48.072;11.970;2023-04-30T14:34:49;3.28;;;1.90;;
65206;SDS011;58477;48.072;11.970;2023-04-30T14:37:15;2.60;;;2.08;;
65206;SDS011;58477;48.072;11.970;2023-04-30T14:39:41;2.50;;;1.95;;
65206;SDS011;58477;48.072;11.970;2023-04-30T14:42:08;4.82;;;2.53;;
65206;SDS011;58477;48.072;11.970;2023-04-30T14:44:36;2.25;;;2.10;;
65206;SDS011;58477;48.072;11.970;2023-04-30T14:47:02;2.42;;;2.22;;
65206;SDS011;58477;48.072;11.970;2023-04-30T14:49:27;2.78;;;2.10;;
65206;SDS011;58477;48.072;11.970;2023-04-30T14:51:52;1.92;;;1.73;;
65206;SDS011;58477;48.072;11.970;2023-04-30T14:54:18;2.10;;;1.80;;
65206;SDS011;58477;48.072;11.970;2023-04-30T14:56:43;4.43;;;2.70;;
65206;SDS011;58477;48.072;11.970;2023-04-30T14:59:09;3.03;;;2.63;;
65206;SDS011;58477;48.072;11.970;2023-04-30T15:01:36;2.75;;;2.55;;
65206;SDS011;58477;48.072;11.970;2023-04-30T15:04:02;3.10;;;2.67;;
65206;SDS011;58477;48.072;11.970;2023-04-30T15:06:28;3.20;;;2.72;;